KCDW/CDW METAR and TAF weather

Enter ICAO airport designator
Station Type Date Time Source
KCDW METAR 2018/10/19 14:53 UTC NOAA

KCDW 191453Z VRB04KT 10SM CLR 10/01 A3027 RMK AO2 SLP257 T01000011 58018


Station Type Date Time Source
KCDW Decoded METAR 2018/10/19 14:53 UTC NOAA

CALDWELL ESSEX COUNTY AIRPORT , NJ, United States (KCDW) 40-53N 074-17W 64M
Oct 19, 2018 - 10:53 AM EDT / 2018.10.19 1453 UTC
Wind: Variable at 5 MPH (4 KT):0
Visibility: 10 mile(s):0
Sky conditions: clear
Temperature: 50.0 F (10.0 C)
Dew Point: 34.0 F (1.1 C)
Relative Humidity: 53%
Pressure (altimeter): 30.27 in. Hg (1025 hPa)
Pressure tendency: 0.05 inches (1.8 hPa) lower than three hours ago
ob: KCDW 191453Z VRB04KT 10SM CLR 10/01 A3027 RMK AO2 SLP257 T01000011 58018
cycle: 15

Station Type Date Time Source
KCDW TAF UTC NOAA

Error!


Example: see airport list